Hobart, Hobart Regional Airport (KHBR)

NameHobart Regional Airport
CityHobart
CountryUnited States
ICAOKHBR
IATAHBR
Altitude477 m
CoordinatesGoogle Map
Live Air TrafficLiveATC.net
METARKHBR 151853Z AUTO 18004KT 10SM CLR 13/M09 A3019 RMK AO2 SLP227 T01281094
2018-12-15 18:53:00 Wind: South (180°) 2.06 m/s - Visibility: 16093.4 m - Temperature: 13 °C - Dew point: -9 °C - Humidity: 20.9% - Pressure: 1022.35 hPa

Sorry, no flights used the airport in this database.